sensor_id;sensor_type;location;lat;lon;timestamp;P1;durP1;ratioP1;P2;durP2;ratioP2
33268;SDS011;19640;50.944;5.260;2024-01-07T00:00:07;31.60;;;17.13;;
33268;SDS011;19640;50.944;5.260;2024-01-07T00:02:33;31.63;;;16.40;;
33268;SDS011;19640;50.944;5.260;2024-01-07T00:04:58;28.05;;;15.98;;
33268;SDS011;19640;50.944;5.260;2024-01-07T00:07:24;25.98;;;15.93;;
33268;SDS011;19640;50.944;5.260;2024-01-07T00:09:50;29.52;;;16.48;;
33268;SDS011;19640;50.944;5.260;2024-01-07T00:12:15;29.75;;;15.30;;
33268;SDS011;19640;50.944;5.260;2024-01-07T00:14:42;25.70;;;15.23;;
33268;SDS011;19640;50.944;5.260;2024-01-07T00:17:07;28.52;;;15.68;;
33268;SDS011;19640;50.944;5.260;2024-01-07T00:19:34;28.70;;;15.13;;
33268;SDS011;19640;50.944;5.260;2024-01-07T00:22:01;27.85;;;16.52;;
33268;SDS011;19640;50.944;5.260;2024-01-07T00:24:26;27.60;;;15.82;;
33268;SDS011;19640;50.944;5.260;2024-01-07T00:26:54;27.48;;;16.35;;
33268;SDS011;19640;50.944;5.260;2024-01-07T00:29:20;27.80;;;16.40;;
33268;SDS011;19640;50.944;5.260;2024-01-07T00:31:46;28.52;;;15.93;;
33268;SDS011;19640;50.944;5.260;2024-01-07T00:34:11;30.10;;;16.08;;
33268;SDS011;19640;50.944;5.260;2024-01-07T00:36:37;28.23;;;15.88;;
33268;SDS011;19640;50.944;5.260;2024-01-07T00:39:02;26.80;;;15.90;;
33268;SDS011;19640;50.944;5.260;2024-01-07T00:41:28;29.45;;;15.82;;
33268;SDS011;19640;50.944;5.260;2024-01-07T00:43:55;32.35;;;16.65;;
33268;SDS011;19640;50.944;5.260;2024-01-07T00:46:21;27.00;;;16.70;;
33268;SDS011;19640;50.944;5.260;2024-01-07T00:48:47;28.70;;;16.70;;
33268;SDS011;19640;50.944;5.260;2024-01-07T00:51:13;28.90;;;16.95;;
33268;SDS011;19640;50.944;5.260;2024-01-07T00:53:38;26.88;;;17.23;;
33268;SDS011;19640;50.944;5.260;2024-01-07T00:56:05;28.90;;;17.02;;
33268;SDS011;19640;50.944;5.260;2024-01-07T00:58:31;27.10;;;16.40;;
33268;SDS011;19640;50.944;5.260;2024-01-07T01:00:56;31.55;;;17.27;;
33268;SDS011;19640;50.944;5.260;2024-01-07T01:03:22;27.42;;;16.38;;
33268;SDS011;19640;50.944;5.260;2024-01-07T01:05:48;33.50;;;18.05;;
33268;SDS011;19640;50.944;5.260;2024-01-07T01:08:14;28.33;;;16.85;;
33268;SDS011;19640;50.944;5.260;2024-01-07T01:10:40;29.70;;;17.05;;
33268;SDS011;19640;50.944;5.260;2024-01-07T01:13:05;32.90;;;15.77;;
33268;SDS011;19640;50.944;5.260;2024-01-07T01:15:31;26.55;;;16.77;;
33268;SDS011;19640;50.944;5.260;2024-01-07T01:17:57;31.85;;;17.45;;
33268;SDS011;19640;50.944;5.260;2024-01-07T01:20:23;30.30;;;16.75;;
33268;SDS011;19640;50.944;5.260;2024-01-07T01:22:48;36.45;;;17.83;;
33268;SDS011;19640;50.944;5.260;2024-01-07T01:25:14;30.67;;;16.95;;
33268;SDS011;19640;50.944;5.260;2024-01-07T01:27:40;29.08;;;16.48;;
33268;SDS011;19640;50.944;5.260;2024-01-07T01:30:06;25.35;;;15.55;;
33268;SDS011;19640;50.944;5.260;2024-01-07T01:32:32;28.15;;;15.63;;
33268;SDS011;19640;50.944;5.260;2024-01-07T01:34:58;31.80;;;15.93;;
33268;SDS011;19640;50.944;5.260;2024-01-07T01:37:23;27.77;;;15.73;;
33268;SDS011;19640;50.944;5.260;2024-01-07T01:39:49;25.33;;;15.60;;
33268;SDS011;19640;50.944;5.260;2024-01-07T01:42:15;26.92;;;15.48;;
33268;SDS011;19640;50.944;5.260;2024-01-07T01:44:40;22.98;;;14.93;;
33268;SDS011;19640;50.944;5.260;2024-01-07T01:47:07;23.35;;;14.65;;
33268;SDS011;19640;50.944;5.260;2024-01-07T01:49:33;28.02;;;16.20;;
33268;SDS011;19640;50.944;5.260;2024-01-07T01:52:00;24.70;;;16.77;;
33268;SDS011;19640;50.944;5.260;2024-01-07T01:54:26;24.13;;;16.30;;
33268;SDS011;19640;50.944;5.260;2024-01-07T01:56:52;28.13;;;15.38;;
33268;SDS011;19640;50.944;5.260;2024-01-07T01:59:18;26.65;;;16.27;;
33268;SDS011;19640;50.944;5.260;2024-01-07T02:01:44;24.27;;;13.73;;
33268;SDS011;19640;50.944;5.260;2024-01-07T02:04:10;25.25;;;15.07;;
33268;SDS011;19640;50.944;5.260;2024-01-07T02:06:36;32.58;;;15.85;;
33268;SDS011;19640;50.944;5.260;2024-01-07T02:09:02;27.38;;;15.70;;
33268;SDS011;19640;50.944;5.260;2024-01-07T02:11:28;28.75;;;15.35;;
33268;SDS011;19640;50.944;5.260;2024-01-07T02:13:54;30.98;;;16.33;;
33268;SDS011;19640;50.944;5.260;2024-01-07T02:16:19;33.42;;;17.38;;
33268;SDS011;19640;50.944;5.260;2024-01-07T02:18:45;29.90;;;15.90;;
33268;SDS011;19640;50.944;5.260;2024-01-07T02:21:12;31.98;;;17.38;;
33268;SDS011;19640;50.944;5.260;2024-01-07T02:23:38;27.75;;;15.70;;
33268;SDS011;19640;50.944;5.260;2024-01-07T02:26:04;28.15;;;16.70;;
33268;SDS011;19640;50.944;5.260;2024-01-07T02:28:31;33.72;;;16.73;;
33268;SDS011;19640;50.944;5.260;2024-01-07T02:30:57;28.65;;;14.98;;
33268;SDS011;19640;50.944;5.260;2024-01-07T02:33:23;35.67;;;16.20;;
33268;SDS011;19640;50.944;5.260;2024-01-07T02:35:49;37.80;;;17.25;;
33268;SDS011;19640;50.944;5.260;2024-01-07T02:38:14;34.60;;;16.70;;
33268;SDS011;19640;50.944;5.260;2024-01-07T02:40:40;32.00;;;16.25;;
33268;SDS011;19640;50.944;5.260;2024-01-07T02:43:06;33.28;;;16.75;;
33268;SDS011;19640;50.944;5.260;2024-01-07T02:45:32;29.33;;;15.95;;
33268;SDS011;19640;50.944;5.260;2024-01-07T02:47:58;32.50;;;16.38;;
33268;SDS011;19640;50.944;5.260;2024-01-07T02:50:24;29.08;;;15.25;;
33268;SDS011;19640;50.944;5.260;2024-01-07T02:52:49;29.90;;;15.77;;
33268;SDS011;19640;50.944;5.260;2024-01-07T02:55:15;32.72;;;16.73;;
33268;SDS011;19640;50.944;5.260;2024-01-07T02:57:41;39.25;;;19.05;;
33268;SDS011;19640;50.944;5.260;2024-01-07T03:00:07;27.67;;;15.48;;
33268;SDS011;19640;50.944;5.260;2024-01-07T03:02:33;30.35;;;15.57;;
33268;SDS011;19640;50.944;5.260;2024-01-07T03:04:59;32.35;;;15.85;;
33268;SDS011;19640;50.944;5.260;2024-01-07T03:07:25;30.55;;;16.15;;
33268;SDS011;19640;50.944;5.260;2024-01-07T03:09:50;33.90;;;17.63;;
33268;SDS011;19640;50.944;5.260;2024-01-07T03:12:16;35.25;;;16.98;;
33268;SDS011;19640;50.944;5.260;2024-01-07T03:14:42;34.80;;;16.77;;
33268;SDS011;19640;50.944;5.260;2024-01-07T03:17:09;31.17;;;16.40;;
33268;SDS011;19640;50.944;5.260;2024-01-07T03:19:37;30.35;;;16.98;;
33268;SDS011;19640;50.944;5.260;2024-01-07T03:22:03;34.33;;;17.13;;
33268;SDS011;19640;50.944;5.260;2024-01-07T03:24:29;28.83;;;17.33;;
33268;SDS011;19640;50.944;5.260;2024-01-07T03:26:54;29.08;;;16.35;;
33268;SDS011;19640;50.944;5.260;2024-01-07T03:29:20;26.65;;;16.13;;
33268;SDS011;19640;50.944;5.260;2024-01-07T03:31:46;34.35;;;17.30;;
33268;SDS011;19640;50.944;5.260;2024-01-07T03:34:11;32.22;;;17.42;;
33268;SDS011;19640;50.944;5.260;2024-01-07T03:36:37;34.80;;;16.98;;
33268;SDS011;19640;50.944;5.260;2024-01-07T03:39:03;35.75;;;16.60;;
33268;SDS011;19640;50.944;5.260;2024-01-07T03:41:28;32.00;;;16.25;;
33268;SDS011;19640;50.944;5.260;2024-01-07T03:43:54;30.23;;;15.07;;
33268;SDS011;19640;50.944;5.260;2024-01-07T03:46:21;36.95;;;17.75;;
33268;SDS011;19640;50.944;5.260;2024-01-07T03:48:47;31.63;;;16.95;;
33268;SDS011;19640;50.944;5.260;2024-01-07T03:51:13;34.05;;;17.83;;
33268;SDS011;19640;50.944;5.260;2024-01-07T03:53:38;19.35;;;10.80;;
33268;SDS011;19640;50.944;5.260;2024-01-07T03:56:04;33.58;;;17.85;;
33268;SDS011;19640;50.944;5.260;2024-01-07T03:58:30;31.92;;;17.23;;
33268;SDS011;19640;50.944;5.260;2024-01-07T04:00:56;39.65;;;18.10;;
33268;SDS011;19640;50.944;5.260;2024-01-07T04:03:22;30.60;;;16.83;;
33268;SDS011;19640;50.944;5.260;2024-01-07T04:05:48;31.27;;;16.40;;
33268;SDS011;19640;50.944;5.260;2024-01-07T04:08:14;32.40;;;17.10;;
33268;SDS011;19640;50.944;5.260;2024-01-07T04:10:41;30.60;;;16.05;;
33268;SDS011;19640;50.944;5.260;2024-01-07T04:13:07;24.33;;;13.02;;
33268;SDS011;19640;50.944;5.260;2024-01-07T04:15:33;31.65;;;14.68;;
33268;SDS011;19640;50.944;5.260;2024-01-07T04:18:02;32.10;;;16.73;;
33268;SDS011;19640;50.944;5.260;2024-01-07T04:20:28;33.38;;;16.05;;
33268;SDS011;19640;50.944;5.260;2024-01-07T04:22:55;31.90;;;14.65;;
33268;SDS011;19640;50.944;5.260;2024-01-07T04:25:20;29.85;;;12.50;;
33268;SDS011;19640;50.944;5.260;2024-01-07T04:27:46;29.08;;;14.10;;
33268;SDS011;19640;50.944;5.260;2024-01-07T04:30:12;28.38;;;14.63;;
33268;SDS011;19640;50.944;5.260;2024-01-07T04:32:38;30.92;;;14.88;;
33268;SDS011;19640;50.944;5.260;2024-01-07T04:35:04;27.33;;;13.88;;
33268;SDS011;19640;50.944;5.260;2024-01-07T04:37:32;30.30;;;14.23;;
33268;SDS011;19640;50.944;5.260;2024-01-07T04:39:58;27.50;;;14.00;;
33268;SDS011;19640;50.944;5.260;2024-01-07T04:42:24;25.02;;;12.55;;
33268;SDS011;19640;50.944;5.260;2024-01-07T04:44:50;28.48;;;14.18;;
33268;SDS011;19640;50.944;5.260;2024-01-07T04:47:28;29.85;;;14.25;;
33268;SDS011;19640;50.944;5.260;2024-01-07T04:49:55;31.00;;;13.95;;
33268;SDS011;19640;50.944;5.260;2024-01-07T04:52:24;32.40;;;14.50;;
33268;SDS011;19640;50.944;5.260;2024-01-07T04:54:51;28.02;;;14.13;;
33268;SDS011;19640;50.944;5.260;2024-01-07T04:57:17;24.35;;;10.88;;
33268;SDS011;19640;50.944;5.260;2024-01-07T04:59:44;29.50;;;13.55;;
33268;SDS011;19640;50.944;5.260;2024-01-07T05:02:11;26.83;;;13.70;;
33268;SDS011;19640;50.944;5.260;2024-01-07T05:04:36;22.58;;;13.40;;
33268;SDS011;19640;50.944;5.260;2024-01-07T05:07:02;29.50;;;13.75;;
33268;SDS011;19640;50.944;5.260;2024-01-07T05:09:28;29.17;;;12.55;;
33268;SDS011;19640;50.944;5.260;2024-01-07T05:11:54;26.98;;;13.63;;
33268;SDS011;19640;50.944;5.260;2024-01-07T05:14:20;27.65;;;13.18;;
33268;SDS011;19640;50.944;5.260;2024-01-07T05:16:47;33.47;;;14.68;;
33268;SDS011;19640;50.944;5.260;2024-01-07T05:19:13;26.90;;;13.23;;
33268;SDS011;19640;50.944;5.260;2024-01-07T05:21:39;26.88;;;12.93;;
33268;SDS011;19640;50.944;5.260;2024-01-07T05:24:04;29.00;;;14.45;;
33268;SDS011;19640;50.944;5.260;2024-01-07T05:26:31;35.03;;;14.07;;
33268;SDS011;19640;50.944;5.260;2024-01-07T05:29:02;30.80;;;13.13;;
33268;SDS011;19640;50.944;5.260;2024-01-07T05:31:28;29.65;;;14.55;;
33268;SDS011;19640;50.944;5.260;2024-01-07T05:33:53;26.02;;;13.50;;
33268;SDS011;19640;50.944;5.260;2024-01-07T05:36:19;31.77;;;15.55;;
33268;SDS011;19640;50.944;5.260;2024-01-07T05:38:45;28.73;;;15.13;;
33268;SDS011;19640;50.944;5.260;2024-01-07T05:41:10;33.85;;;14.65;;
33268;SDS011;19640;50.944;5.260;2024-01-07T05:43:36;39.55;;;15.60;;
33268;SDS011;19640;50.944;5.260;2024-01-07T05:46:02;27.40;;;14.10;;
33268;SDS011;19640;50.944;5.260;2024-01-07T05:48:28;36.08;;;16.20;;
33268;SDS011;19640;50.944;5.260;2024-01-07T05:50:54;35.67;;;15.48;;
33268;SDS011;19640;50.944;5.260;2024-01-07T05:53:20;30.48;;;15.38;;
33268;SDS011;19640;50.944;5.260;2024-01-07T05:55:46;38.90;;;15.20;;
33268;SDS011;19640;50.944;5.260;2024-01-07T05:58:11;33.33;;;14.30;;
33268;SDS011;19640;50.944;5.260;2024-01-07T06:00:37;26.65;;;14.50;;
33268;SDS011;19640;50.944;5.260;2024-01-07T06:03:03;24.30;;;13.98;;
33268;SDS011;19640;50.944;5.260;2024-01-07T06:05:29;24.63;;;13.00;;
33268;SDS011;19640;50.944;5.260;2024-01-07T06:07:55;31.45;;;14.32;;
33268;SDS011;19640;50.944;5.260;2024-01-07T06:10:20;23.10;;;13.35;;
33268;SDS011;19640;50.944;5.260;2024-01-07T06:12:46;31.20;;;14.43;;
33268;SDS011;19640;50.944;5.260;2024-01-07T06:15:12;26.02;;;13.77;;
33268;SDS011;19640;50.944;5.260;2024-01-07T06:17:37;23.33;;;13.00;;
33268;SDS011;19640;50.944;5.260;2024-01-07T06:20:03;26.02;;;13.80;;
33268;SDS011;19640;50.944;5.260;2024-01-07T06:22:30;22.10;;;12.00;;
33268;SDS011;19640;50.944;5.260;2024-01-07T06:24:56;24.33;;;13.45;;
33268;SDS011;19640;50.944;5.260;2024-01-07T06:27:22;30.02;;;14.05;;
33268;SDS011;19640;50.944;5.260;2024-01-07T06:29:47;22.00;;;12.70;;
33268;SDS011;19640;50.944;5.260;2024-01-07T06:32:13;20.00;;;11.63;;
33268;SDS011;19640;50.944;5.260;2024-01-07T06:34:39;19.95;;;11.35;;
33268;SDS011;19640;50.944;5.260;2024-01-07T06:37:05;16.10;;;10.60;;
33268;SDS011;19640;50.944;5.260;2024-01-07T06:39:32;19.20;;;12.30;;
33268;SDS011;19640;50.944;5.260;2024-01-07T06:41:59;20.73;;;11.38;;
33268;SDS011;19640;50.944;5.260;2024-01-07T06:44:25;21.08;;;12.07;;
33268;SDS011;19640;50.944;5.260;2024-01-07T06:46:50;25.65;;;13.40;;
33268;SDS011;19640;50.944;5.260;2024-01-07T06:49:16;23.70;;;12.48;;
33268;SDS011;19640;50.944;5.260;2024-01-07T06:51:42;24.60;;;13.43;;
33268;SDS011;19640;50.944;5.260;2024-01-07T06:54:08;23.08;;;12.10;;
33268;SDS011;19640;50.944;5.260;2024-01-07T06:56:34;20.73;;;13.63;;
33268;SDS011;19640;50.944;5.260;2024-01-07T06:59:00;27.25;;;13.25;;
33268;SDS011;19640;50.944;5.260;2024-01-07T07:01:25;21.63;;;12.13;;
33268;SDS011;19640;50.944;5.260;2024-01-07T07:03:51;17.73;;;12.20;;
33268;SDS011;19640;50.944;5.260;2024-01-07T07:06:17;23.17;;;12.13;;
33268;SDS011;19640;50.944;5.260;2024-01-07T07:08:42;20.60;;;12.45;;
33268;SDS011;19640;50.944;5.260;2024-01-07T07:11:08;19.83;;;12.88;;
33268;SDS011;19640;50.944;5.260;2024-01-07T07:13:34;21.17;;;11.80;;
33268;SDS011;19640;50.944;5.260;2024-01-07T07:16:00;20.00;;;11.85;;
33268;SDS011;19640;50.944;5.260;2024-01-07T07:18:26;18.08;;;10.98;;
33268;SDS011;19640;50.944;5.260;2024-01-07T07:20:51;17.33;;;11.25;;
33268;SDS011;19640;50.944;5.260;2024-01-07T07:23:17;14.75;;;11.10;;
33268;SDS011;19640;50.944;5.260;2024-01-07T07:25:43;17.48;;;11.55;;
33268;SDS011;19640;50.944;5.260;2024-01-07T07:28:09;21.95;;;13.13;;
33268;SDS011;19640;50.944;5.260;2024-01-07T07:30:35;21.95;;;13.20;;
33268;SDS011;19640;50.944;5.260;2024-01-07T07:33:01;13.90;;;9.75;;
33268;SDS011;19640;50.944;5.260;2024-01-07T07:35:27;19.52;;;11.57;;
33268;SDS011;19640;50.944;5.260;2024-01-07T07:37:53;18.40;;;11.65;;
33268;SDS011;19640;50.944;5.260;2024-01-07T07:40:20;18.80;;;11.00;;
33268;SDS011;19640;50.944;5.260;2024-01-07T07:42:45;18.20;;;12.15;;
33268;SDS011;19640;50.944;5.260;2024-01-07T07:45:11;20.95;;;12.02;;
33268;SDS011;19640;50.944;5.260;2024-01-07T07:47:37;20.15;;;11.75;;
33268;SDS011;19640;50.944;5.260;2024-01-07T07:50:05;15.35;;;11.20;;
33268;SDS011;19640;50.944;5.260;2024-01-07T07:52:31;19.35;;;13.25;;
33268;SDS011;19640;50.944;5.260;2024-01-07T07:54:58;18.52;;;12.43;;
33268;SDS011;19640;50.944;5.260;2024-01-07T07:57:23;19.63;;;13.35;;
33268;SDS011;19640;50.944;5.260;2024-01-07T07:59:50;18.15;;;12.43;;
33268;SDS011;19640;50.944;5.260;2024-01-07T08:02:16;18.42;;;11.85;;
33268;SDS011;19640;50.944;5.260;2024-01-07T08:04:42;18.35;;;11.80;;
33268;SDS011;19640;50.944;5.260;2024-01-07T08:07:08;17.30;;;10.95;;
33268;SDS011;19640;50.944;5.260;2024-01-07T08:09:34;18.30;;;12.23;;
33268;SDS011;19640;50.944;5.260;2024-01-07T08:12:06;21.67;;;12.95;;
33268;SDS011;19640;50.944;5.260;2024-01-07T08:14:32;17.33;;;9.98;;
33268;SDS011;19640;50.944;5.260;2024-01-07T08:16:58;22.38;;;12.98;;
33268;SDS011;19640;50.944;5.260;2024-01-07T08:19:24;19.15;;;11.70;;
33268;SDS011;19640;50.944;5.260;2024-01-07T08:21:50;15.20;;;11.55;;
33268;SDS011;19640;50.944;5.260;2024-01-07T08:24:15;16.45;;;10.38;;
33268;SDS011;19640;50.944;5.260;2024-01-07T08:26:41;18.60;;;11.82;;
33268;SDS011;19640;50.944;5.260;2024-01-07T08:29:06;16.90;;;11.98;;
33268;SDS011;19640;50.944;5.260;2024-01-07T08:31:32;17.60;;;11.70;;
33268;SDS011;19640;50.944;5.260;2024-01-07T08:33:58;16.73;;;11.68;;
33268;SDS011;19640;50.944;5.260;2024-01-07T08:36:24;12.52;;;9.30;;
33268;SDS011;19640;50.944;5.260;2024-01-07T08:38:49;18.60;;;11.65;;
33268;SDS011;19640;50.944;5.260;2024-01-07T08:41:15;18.15;;;12.48;;
33268;SDS011;19640;50.944;5.260;2024-01-07T08:43:41;14.63;;;10.73;;
33268;SDS011;19640;50.944;5.260;2024-01-07T08:46:07;19.35;;;12.38;;
33268;SDS011;19640;50.944;5.260;2024-01-07T08:48:33;16.38;;;11.45;;
33268;SDS011;19640;50.944;5.260;2024-01-07T08:50:58;18.75;;;11.77;;
33268;SDS011;19640;50.944;5.260;2024-01-07T08:53:24;21.23;;;12.82;;
33268;SDS011;19640;50.944;5.260;2024-01-07T08:55:50;14.52;;;11.18;;
33268;SDS011;19640;50.944;5.260;2024-01-07T08:58:16;17.92;;;12.15;;
33268;SDS011;19640;50.944;5.260;2024-01-07T09:00:44;22.05;;;12.55;;
33268;SDS011;19640;50.944;5.260;2024-01-07T09:03:10;18.00;;;12.63;;
33268;SDS011;19640;50.944;5.260;2024-01-07T09:05:36;20.40;;;11.98;;
33268;SDS011;19640;50.944;5.260;2024-01-07T09:08:02;25.60;;;13.68;;
33268;SDS011;19640;50.944;5.260;2024-01-07T09:10:28;22.38;;;13.52;;
33268;SDS011;19640;50.944;5.260;2024-01-07T09:12:53;17.08;;;10.40;;
33268;SDS011;19640;50.944;5.260;2024-01-07T09:15:19;24.30;;;13.82;;
33268;SDS011;19640;50.944;5.260;2024-01-07T09:17:46;19.02;;;13.70;;
33268;SDS011;19640;50.944;5.260;2024-01-07T09:20:12;18.98;;;12.07;;
33268;SDS011;19640;50.944;5.260;2024-01-07T09:22:38;26.13;;;15.63;;
33268;SDS011;19640;50.944;5.260;2024-01-07T09:25:04;24.92;;;12.77;;
33268;SDS011;19640;50.944;5.260;2024-01-07T09:27:31;22.25;;;14.10;;
33268;SDS011;19640;50.944;5.260;2024-01-07T09:29:57;27.45;;;15.00;;
33268;SDS011;19640;50.944;5.260;2024-01-07T09:32:23;24.38;;;14.32;;
33268;SDS011;19640;50.944;5.260;2024-01-07T09:34:49;26.55;;;15.02;;
33268;SDS011;19640;50.944;5.260;2024-01-07T09:37:14;25.80;;;14.38;;
33268;SDS011;19640;50.944;5.260;2024-01-07T09:39:41;23.02;;;14.40;;
33268;SDS011;19640;50.944;5.260;2024-01-07T09:42:12;22.42;;;14.07;;
33268;SDS011;19640;50.944;5.260;2024-01-07T09:44:41;26.05;;;14.30;;
33268;SDS011;19640;50.944;5.260;2024-01-07T09:47:11;19.08;;;12.18;;
33268;SDS011;19640;50.944;5.260;2024-01-07T09:49:38;24.05;;;15.65;;
33268;SDS011;19640;50.944;5.260;2024-01-07T09:52:05;26.95;;;15.85;;
33268;SDS011;19640;50.944;5.260;2024-01-07T09:54:32;26.13;;;15.55;;
33268;SDS011;19640;50.944;5.260;2024-01-07T09:57:00;24.48;;;15.15;;
33268;SDS011;19640;50.944;5.260;2024-01-07T09:59:29;24.67;;;15.05;;
33268;SDS011;19640;50.944;5.260;2024-01-07T10:01:58;30.10;;;16.13;;
33268;SDS011;19640;50.944;5.260;2024-01-07T10:04:25;21.23;;;14.07;;
33268;SDS011;19640;50.944;5.260;2024-01-07T10:06:52;29.75;;;16.00;;
33268;SDS011;19640;50.944;5.260;2024-01-07T10:09:19;29.73;;;15.68;;
33268;SDS011;19640;50.944;5.260;2024-01-07T10:11:50;24.70;;;15.20;;
33268;SDS011;19640;50.944;5.260;2024-01-07T10:14:15;23.08;;;16.02;;
33268;SDS011;19640;50.944;5.260;2024-01-07T10:16:41;28.20;;;16.17;;
33268;SDS011;19640;50.944;5.260;2024-01-07T10:19:07;22.92;;;13.70;;
33268;SDS011;19640;50.944;5.260;2024-01-07T10:21:33;29.13;;;15.05;;
33268;SDS011;19640;50.944;5.260;2024-01-07T10:24:11;23.67;;;14.32;;
33268;SDS011;19640;50.944;5.260;2024-01-07T10:26:38;21.92;;;12.82;;
33268;SDS011;19640;50.944;5.260;2024-01-07T10:29:05;16.50;;;7.85;;
33268;SDS011;19640;50.944;5.260;2024-01-07T10:31:31;21.00;;;12.15;;
33268;SDS011;19640;50.944;5.260;2024-01-07T10:33:57;22.95;;;12.95;;
33268;SDS011;19640;50.944;5.260;2024-01-07T10:36:24;27.40;;;14.30;;
33268;SDS011;19640;50.944;5.260;2024-01-07T10:38:50;26.08;;;15.23;;
33268;SDS011;19640;50.944;5.260;2024-01-07T10:41:19;21.70;;;13.00;;
33268;SDS011;19640;50.944;5.260;2024-01-07T10:43:48;22.85;;;14.43;;
33268;SDS011;19640;50.944;5.260;2024-01-07T10:46:14;23.40;;;13.68;;
33268;SDS011;19640;50.944;5.260;2024-01-07T10:48:52;28.85;;;15.10;;
33268;SDS011;19640;50.944;5.260;2024-01-07T10:51:20;22.40;;;13.82;;
33268;SDS011;19640;50.944;5.260;2024-01-07T10:53:51;23.95;;;14.60;;
33268;SDS011;19640;50.944;5.260;2024-01-07T10:56:23;17.45;;;12.18;;
33268;SDS011;19640;50.944;5.260;2024-01-07T10:58:53;22.15;;;13.00;;
33268;SDS011;19640;50.944;5.260;2024-01-07T11:01:20;24.88;;;14.90;;
33268;SDS011;19640;50.944;5.260;2024-01-07T11:03:57;23.10;;;14.32;;
33268;SDS011;19640;50.944;5.260;2024-01-07T11:09:37;17.27;;;12.63;;
33268;SDS011;19640;50.944;5.260;2024-01-07T11:12:19;19.02;;;10.85;;
33268;SDS011;19640;50.944;5.260;2024-01-07T11:14:46;16.60;;;10.98;;
33268;SDS011;19640;50.944;5.260;2024-01-07T11:18:02;23.20;;;13.27;;
33268;SDS011;19640;50.944;5.260;2024-01-07T11:20:13;20.90;;;14.25;;
33268;SDS011;19640;50.944;5.260;2024-01-07T11:22:44;21.40;;;12.43;;
33268;SDS011;19640;50.944;5.260;2024-01-07T11:25:29;15.05;;;8.93;;
33268;SDS011;19640;50.944;5.260;2024-01-07T11:27:58;23.70;;;14.55;;
33268;SDS011;19640;50.944;5.260;2024-01-07T11:30:26;22.55;;;14.38;;
33268;SDS011;19640;50.944;5.260;2024-01-07T11:32:59;23.58;;;13.82;;
33268;SDS011;19640;50.944;5.260;2024-01-07T11:38:21;16.63;;;10.45;;
33268;SDS011;19640;50.944;5.260;2024-01-07T11:40:47;27.30;;;16.02;;
33268;SDS011;19640;50.944;5.260;2024-01-07T11:43:14;25.83;;;15.60;;
33268;SDS011;19640;50.944;5.260;2024-01-07T11:45:40;21.05;;;13.77;;
33268;SDS011;19640;50.944;5.260;2024-01-07T11:48:05;25.98;;;15.20;;
33268;SDS011;19640;50.944;5.260;2024-01-07T11:50:31;22.15;;;14.70;;
33268;SDS011;19640;50.944;5.260;2024-01-07T11:52:57;25.52;;;14.02;;
33268;SDS011;19640;50.944;5.260;2024-01-07T11:55:23;20.58;;;13.50;;
33268;SDS011;19640;50.944;5.260;2024-01-07T11:57:50;21.65;;;13.40;;
33268;SDS011;19640;50.944;5.260;2024-01-07T12:00:17;24.25;;;14.68;;
33268;SDS011;19640;50.944;5.260;2024-01-07T12:02:43;20.25;;;15.30;;
33268;SDS011;19640;50.944;5.260;2024-01-07T12:05:08;23.80;;;15.38;;
33268;SDS011;19640;50.944;5.260;2024-01-07T12:07:35;24.27;;;14.60;;
33268;SDS011;19640;50.944;5.260;2024-01-07T12:10:02;23.35;;;14.88;;
33268;SDS011;19640;50.944;5.260;2024-01-07T12:12:28;19.75;;;13.30;;
33268;SDS011;19640;50.944;5.260;2024-01-07T12:14:54;20.63;;;13.68;;
33268;SDS011;19640;50.944;5.260;2024-01-07T12:17:22;19.83;;;12.45;;
33268;SDS011;19640;50.944;5.260;2024-01-07T12:19:47;20.95;;;14.75;;
33268;SDS011;19640;50.944;5.260;2024-01-07T12:22:14;19.00;;;11.93;;
33268;SDS011;19640;50.944;5.260;2024-01-07T12:24:43;14.50;;;9.90;;
33268;SDS011;19640;50.944;5.260;2024-01-07T12:27:09;15.05;;;10.52;;
33268;SDS011;19640;50.944;5.260;2024-01-07T12:29:34;15.20;;;9.52;;
33268;SDS011;19640;50.944;5.260;2024-01-07T12:32:00;16.13;;;11.88;;
33268;SDS011;19640;50.944;5.260;2024-01-07T12:34:27;13.38;;;9.65;;
33268;SDS011;19640;50.944;5.260;2024-01-07T12:36:53;17.50;;;12.07;;
33268;SDS011;19640;50.944;5.260;2024-01-07T12:39:20;17.77;;;12.75;;
33268;SDS011;19640;50.944;5.260;2024-01-07T12:41:46;17.27;;;11.90;;
33268;SDS011;19640;50.944;5.260;2024-01-07T12:44:12;14.35;;;10.48;;
33268;SDS011;19640;50.944;5.260;2024-01-07T12:46:38;14.98;;;11.23;;
33268;SDS011;19640;50.944;5.260;2024-01-07T12:49:03;13.85;;;10.23;;
33268;SDS011;19640;50.944;5.260;2024-01-07T12:51:29;16.42;;;10.90;;
33268;SDS011;19640;50.944;5.260;2024-01-07T12:53:55;13.35;;;9.13;;
33268;SDS011;19640;50.944;5.260;2024-01-07T12:56:21;15.60;;;10.43;;
33268;SDS011;19640;50.944;5.260;2024-01-07T12:58:47;15.68;;;11.07;;
33268;SDS011;19640;50.944;5.260;2024-01-07T13:01:13;10.18;;;8.65;;
33268;SDS011;19640;50.944;5.260;2024-01-07T13:03:39;11.48;;;6.88;;
33268;SDS011;19640;50.944;5.260;2024-01-07T13:06:05;11.13;;;9.40;;
33268;SDS011;19640;50.944;5.260;2024-01-07T13:08:31;16.02;;;10.63;;
33268;SDS011;19640;50.944;5.260;2024-01-07T13:10:58;11.77;;;9.68;;
33268;SDS011;19640;50.944;5.260;2024-01-07T13:13:25;6.95;;;5.65;;
33268;SDS011;19640;50.944;5.260;2024-01-07T13:15:51;9.18;;;7.95;;
33268;SDS011;19640;50.944;5.260;2024-01-07T13:18:17;12.52;;;8.90;;
33268;SDS011;19640;50.944;5.260;2024-01-07T13:20:43;10.70;;;8.00;;
33268;SDS011;19640;50.944;5.260;2024-01-07T13:23:08;6.00;;;4.25;;
33268;SDS011;19640;50.944;5.260;2024-01-07T13:25:34;8.13;;;7.32;;
33268;SDS011;19640;50.944;5.260;2024-01-07T13:28:00;9.32;;;7.32;;
33268;SDS011;19640;50.944;5.260;2024-01-07T13:30:25;8.95;;;5.72;;
33268;SDS011;19640;50.944;5.260;2024-01-07T13:32:51;10.30;;;8.32;;
33268;SDS011;19640;50.944;5.260;2024-01-07T13:35:21;11.65;;;9.57;;
33268;SDS011;19640;50.944;5.260;2024-01-07T13:37:47;10.57;;;7.88;;
33268;SDS011;19640;50.944;5.260;2024-01-07T13:40:13;12.95;;;6.57;;
33268;SDS011;19640;50.944;5.260;2024-01-07T13:42:39;7.30;;;6.13;;
33268;SDS011;19640;50.944;5.260;2024-01-07T13:45:05;9.75;;;7.50;;
33268;SDS011;19640;50.944;5.260;2024-01-07T13:47:31;11.52;;;8.05;;
33268;SDS011;19640;50.944;5.260;2024-01-07T13:49:57;13.38;;;9.88;;
33268;SDS011;19640;50.944;5.260;2024-01-07T13:52:22;10.00;;;7.07;;
33268;SDS011;19640;50.944;5.260;2024-01-07T13:54:48;14.57;;;9.20;;
33268;SDS011;19640;50.944;5.260;2024-01-07T13:57:14;12.93;;;10.00;;
33268;SDS011;19640;50.944;5.260;2024-01-07T13:59:40;15.85;;;9.10;;
33268;SDS011;19640;50.944;5.260;2024-01-07T14:02:06;13.75;;;10.20;;
33268;SDS011;19640;50.944;5.260;2024-01-07T14:04:33;13.82;;;10.60;;
33268;SDS011;19640;50.944;5.260;2024-01-07T14:06:58;17.58;;;9.80;;
33268;SDS011;19640;50.944;5.260;2024-01-07T14:09:24;12.77;;;8.77;;
33268;SDS011;19640;50.944;5.260;2024-01-07T14:11:50;12.30;;;10.30;;
33268;SDS011;19640;50.944;5.260;2024-01-07T14:14:17;15.27;;;10.65;;
33268;SDS011;19640;50.944;5.260;2024-01-07T14:16:44;16.10;;;9.15;;
33268;SDS011;19640;50.944;5.260;2024-01-07T14:19:10;13.02;;;9.57;;
33268;SDS011;19640;50.944;5.260;2024-01-07T14:21:37;8.27;;;6.47;;
33268;SDS011;19640;50.944;5.260;2024-01-07T14:24:02;9.70;;;8.27;;